sensor_id;sensor_type;location;lat;lon;timestamp;P1;durP1;ratioP1;P2;durP2;ratioP2
8683;SDS011;4379;59.744;18.206;2023-01-28T00:01:26;1.10;;;0.90;;
8683;SDS011;4379;59.744;18.206;2023-01-28T00:03:53;1.27;;;1.17;;
8683;SDS011;4379;59.744;18.206;2023-01-28T00:06:20;1.10;;;1.00;;
8683;SDS011;4379;59.744;18.206;2023-01-28T00:08:47;0.87;;;0.87;;
8683;SDS011;4379;59.744;18.206;2023-01-28T00:11:15;2.00;;;1.00;;
8683;SDS011;4379;59.744;18.206;2023-01-28T00:13:42;1.20;;;1.10;;
8683;SDS011;4379;59.744;18.206;2023-01-28T00:16:10;1.33;;;1.23;;
8683;SDS011;4379;59.744;18.206;2023-01-28T00:18:37;2.30;;;1.30;;
8683;SDS011;4379;59.744;18.206;2023-01-28T00:21:11;1.37;;;1.10;;
8683;SDS011;4379;59.744;18.206;2023-01-28T00:23:40;1.93;;;1.27;;
8683;SDS011;4379;59.744;18.206;2023-01-28T00:26:10;1.20;;;1.20;;
8683;SDS011;4379;59.744;18.206;2023-01-28T00:28:39;0.87;;;0.87;;
8683;SDS011;4379;59.744;18.206;2023-01-28T00:31:08;1.00;;;0.90;;
8683;SDS011;4379;59.744;18.206;2023-01-28T00:33:47;0.97;;;0.97;;
8683;SDS011;4379;59.744;18.206;2023-01-28T00:36:15;1.13;;;1.10;;
8683;SDS011;4379;59.744;18.206;2023-01-28T00:38:47;0.80;;;0.80;;
8683;SDS011;4379;59.744;18.206;2023-01-28T00:41:16;1.30;;;0.97;;
8683;SDS011;4379;59.744;18.206;2023-01-28T00:43:47;2.37;;;1.30;;
8683;SDS011;4379;59.744;18.206;2023-01-28T00:46:15;1.20;;;1.20;;
8683;SDS011;4379;59.744;18.206;2023-01-28T00:48:43;1.10;;;1.07;;
8683;SDS011;4379;59.744;18.206;2023-01-28T00:51:11;2.10;;;1.10;;
8683;SDS011;4379;59.744;18.206;2023-01-28T00:53:40;1.90;;;0.93;;
8683;SDS011;4379;59.744;18.206;2023-01-28T00:56:09;0.90;;;0.90;;
8683;SDS011;4379;59.744;18.206;2023-01-28T00:58:41;2.20;;;1.50;;
8683;SDS011;4379;59.744;18.206;2023-01-28T01:01:10;1.07;;;1.00;;
8683;SDS011;4379;59.744;18.206;2023-01-28T01:03:39;1.17;;;1.10;;
8683;SDS011;4379;59.744;18.206;2023-01-28T01:06:07;1.53;;;1.03;;
8683;SDS011;4379;59.744;18.206;2023-01-28T01:08:35;1.77;;;1.30;;
8683;SDS011;4379;59.744;18.206;2023-01-28T01:11:06;1.10;;;1.00;;
8683;SDS011;4379;59.744;18.206;2023-01-28T01:13:34;1.00;;;1.00;;
8683;SDS011;4379;59.744;18.206;2023-01-28T01:16:03;1.37;;;1.27;;
8683;SDS011;4379;59.744;18.206;2023-01-28T01:18:33;1.17;;;1.00;;
8683;SDS011;4379;59.744;18.206;2023-01-28T01:21:02;1.03;;;1.03;;
8683;SDS011;4379;59.744;18.206;2023-01-28T01:23:32;1.40;;;1.30;;
8683;SDS011;4379;59.744;18.206;2023-01-28T01:26:00;1.20;;;1.10;;
8683;SDS011;4379;59.744;18.206;2023-01-28T01:28:28;1.20;;;1.10;;
8683;SDS011;4379;59.744;18.206;2023-01-28T01:31:02;1.03;;;1.00;;
8683;SDS011;4379;59.744;18.206;2023-01-28T01:33:31;2.13;;;1.10;;
8683;SDS011;4379;59.744;18.206;2023-01-28T01:35:58;1.10;;;1.10;;
8683;SDS011;4379;59.744;18.206;2023-01-28T01:38:26;2.20;;;1.40;;
8683;SDS011;4379;59.744;18.206;2023-01-28T01:40:57;1.40;;;1.30;;
8683;SDS011;4379;59.744;18.206;2023-01-28T01:43:43;1.30;;;1.20;;
8683;SDS011;4379;59.744;18.206;2023-01-28T01:46:13;1.13;;;1.10;;
8683;SDS011;4379;59.744;18.206;2023-01-28T01:48:45;1.90;;;1.30;;
8683;SDS011;4379;59.744;18.206;2023-01-28T01:51:14;1.97;;;1.23;;
8683;SDS011;4379;59.744;18.206;2023-01-28T01:53:48;1.13;;;1.13;;
8683;SDS011;4379;59.744;18.206;2023-01-28T01:56:20;1.40;;;1.30;;
8683;SDS011;4379;59.744;18.206;2023-01-28T01:58:50;1.33;;;1.27;;
8683;SDS011;4379;59.744;18.206;2023-01-28T02:01:21;1.70;;;1.60;;
8683;SDS011;4379;59.744;18.206;2023-01-28T02:06:43;1.60;;;1.50;;
8683;SDS011;4379;59.744;18.206;2023-01-28T02:09:29;1.40;;;1.30;;
8683;SDS011;4379;59.744;18.206;2023-01-28T02:11:59;1.43;;;1.33;;
8683;SDS011;4379;59.744;18.206;2023-01-28T02:14:30;1.50;;;1.40;;
8683;SDS011;4379;59.744;18.206;2023-01-28T02:17:01;1.40;;;1.30;;
8683;SDS011;4379;59.744;18.206;2023-01-28T02:28:20;1.43;;;1.43;;
8683;SDS011;4379;59.744;18.206;2023-01-28T02:37:01;1.30;;;1.30;;
8683;SDS011;4379;59.744;18.206;2023-01-28T02:39:40;1.90;;;1.50;;
8683;SDS011;4379;59.744;18.206;2023-01-28T02:42:21;2.00;;;1.30;;
8683;SDS011;4379;59.744;18.206;2023-01-28T02:44:50;1.33;;;1.23;;
8683;SDS011;4379;59.744;18.206;2023-01-28T02:47:17;1.00;;;1.00;;
8683;SDS011;4379;59.744;18.206;2023-01-28T02:50:13;2.10;;;1.43;;
8683;SDS011;4379;59.744;18.206;2023-01-28T03:01:54;1.13;;;1.13;;
8683;SDS011;4379;59.744;18.206;2023-01-28T03:04:22;1.20;;;1.20;;
8683;SDS011;4379;59.744;18.206;2023-01-28T03:07:00;1.23;;;1.23;;
8683;SDS011;4379;59.744;18.206;2023-01-28T03:09:31;1.47;;;1.20;;
8683;SDS011;4379;59.744;18.206;2023-01-28T03:12:19;1.20;;;1.10;;
8683;SDS011;4379;59.744;18.206;2023-01-28T03:15:09;1.20;;;1.10;;
8683;SDS011;4379;59.744;18.206;2023-01-28T03:18:14;0.90;;;0.90;;
8683;SDS011;4379;59.744;18.206;2023-01-28T03:21:14;1.20;;;1.20;;
8683;SDS011;4379;59.744;18.206;2023-01-28T03:24:07;2.00;;;1.20;;
8683;SDS011;4379;59.744;18.206;2023-01-28T03:27:04;1.07;;;0.90;;
8683;SDS011;4379;59.744;18.206;2023-01-28T03:30:13;1.30;;;1.20;;
8683;SDS011;4379;59.744;18.206;2023-01-28T03:33:03;1.27;;;1.00;;
8683;SDS011;4379;59.744;18.206;2023-01-28T03:35:50;2.23;;;1.23;;
8683;SDS011;4379;59.744;18.206;2023-01-28T03:38:38;1.67;;;1.03;;
8683;SDS011;4379;59.744;18.206;2023-01-28T03:41:09;0.90;;;0.90;;
8683;SDS011;4379;59.744;18.206;2023-01-28T03:43:37;0.87;;;0.80;;
8683;SDS011;4379;59.744;18.206;2023-01-28T03:46:04;1.17;;;0.90;;
8683;SDS011;4379;59.744;18.206;2023-01-28T03:48:32;0.80;;;0.80;;
8683;SDS011;4379;59.744;18.206;2023-01-28T03:50:59;0.60;;;0.60;;
8683;SDS011;4379;59.744;18.206;2023-01-28T03:53:27;1.20;;;0.90;;
8683;SDS011;4379;59.744;18.206;2023-01-28T03:55:54;0.80;;;0.80;;
8683;SDS011;4379;59.744;18.206;2023-01-28T03:58:24;0.80;;;0.80;;
8683;SDS011;4379;59.744;18.206;2023-01-28T04:01:05;0.97;;;0.90;;
8683;SDS011;4379;59.744;18.206;2023-01-28T04:03:33;1.00;;;0.90;;
8683;SDS011;4379;59.744;18.206;2023-01-28T04:06:02;0.80;;;0.80;;
8683;SDS011;4379;59.744;18.206;2023-01-28T04:08:32;1.30;;;0.97;;
8683;SDS011;4379;59.744;18.206;2023-01-28T04:10:59;0.63;;;0.63;;
8683;SDS011;4379;59.744;18.206;2023-01-28T04:13:41;1.03;;;0.80;;
8683;SDS011;4379;59.744;18.206;2023-01-28T04:16:09;1.20;;;1.00;;
8683;SDS011;4379;59.744;18.206;2023-01-28T04:18:37;1.20;;;0.63;;
8683;SDS011;4379;59.744;18.206;2023-01-28T04:21:04;0.90;;;0.73;;
8683;SDS011;4379;59.744;18.206;2023-01-28T04:23:32;2.97;;;1.20;;
8683;SDS011;4379;59.744;18.206;2023-01-28T04:25:59;1.70;;;0.93;;
8683;SDS011;4379;59.744;18.206;2023-01-28T04:28:26;0.73;;;0.73;;
8683;SDS011;4379;59.744;18.206;2023-01-28T04:30:53;2.40;;;0.80;;
8683;SDS011;4379;59.744;18.206;2023-01-28T04:33:21;1.10;;;0.73;;
8683;SDS011;4379;59.744;18.206;2023-01-28T04:35:48;0.70;;;0.70;;
8683;SDS011;4379;59.744;18.206;2023-01-28T04:38:15;0.87;;;0.87;;
8683;SDS011;4379;59.744;18.206;2023-01-28T04:40:42;0.70;;;0.70;;
8683;SDS011;4379;59.744;18.206;2023-01-28T04:43:10;1.30;;;0.93;;
8683;SDS011;4379;59.744;18.206;2023-01-28T04:45:37;1.10;;;1.00;;
8683;SDS011;4379;59.744;18.206;2023-01-28T04:48:04;1.10;;;1.00;;
8683;SDS011;4379;59.744;18.206;2023-01-28T04:50:31;0.97;;;0.87;;
8683;SDS011;4379;59.744;18.206;2023-01-28T04:52:59;0.77;;;0.70;;
8683;SDS011;4379;59.744;18.206;2023-01-28T04:55:26;1.00;;;0.80;;
8683;SDS011;4379;59.744;18.206;2023-01-28T04:57:53;1.33;;;0.70;;
8683;SDS011;4379;59.744;18.206;2023-01-28T05:00:20;1.53;;;1.00;;
8683;SDS011;4379;59.744;18.206;2023-01-28T05:02:50;1.60;;;0.80;;
8683;SDS011;4379;59.744;18.206;2023-01-28T05:05:17;1.47;;;0.97;;
8683;SDS011;4379;59.744;18.206;2023-01-28T05:07:54;1.03;;;0.80;;
8683;SDS011;4379;59.744;18.206;2023-01-28T05:10:23;1.07;;;0.80;;
8683;SDS011;4379;59.744;18.206;2023-01-28T05:12:51;2.00;;;0.80;;
8683;SDS011;4379;59.744;18.206;2023-01-28T05:15:19;1.83;;;0.87;;
8683;SDS011;4379;59.744;18.206;2023-01-28T05:17:47;3.23;;;1.00;;
8683;SDS011;4379;59.744;18.206;2023-01-28T05:20:14;0.97;;;0.97;;
8683;SDS011;4379;59.744;18.206;2023-01-28T05:22:41;0.80;;;0.80;;
8683;SDS011;4379;59.744;18.206;2023-01-28T05:25:09;1.60;;;0.90;;
8683;SDS011;4379;59.744;18.206;2023-01-28T05:27:36;1.50;;;0.73;;
8683;SDS011;4379;59.744;18.206;2023-01-28T05:30:04;1.13;;;0.80;;
8683;SDS011;4379;59.744;18.206;2023-01-28T05:32:32;0.77;;;0.70;;
8683;SDS011;4379;59.744;18.206;2023-01-28T05:35:00;1.03;;;0.87;;
8683;SDS011;4379;59.744;18.206;2023-01-28T05:37:27;1.43;;;0.77;;
8683;SDS011;4379;59.744;18.206;2023-01-28T05:39:54;1.13;;;0.90;;
8683;SDS011;4379;59.744;18.206;2023-01-28T05:42:21;1.33;;;0.70;;
8683;SDS011;4379;59.744;18.206;2023-01-28T05:44:48;1.17;;;0.80;;
8683;SDS011;4379;59.744;18.206;2023-01-28T05:47:20;2.60;;;1.00;;
8683;SDS011;4379;59.744;18.206;2023-01-28T05:49:47;1.53;;;0.90;;
8683;SDS011;4379;59.744;18.206;2023-01-28T05:52:15;2.07;;;0.90;;
8683;SDS011;4379;59.744;18.206;2023-01-28T05:54:42;1.83;;;1.00;;
8683;SDS011;4379;59.744;18.206;2023-01-28T05:57:10;0.83;;;0.80;;
8683;SDS011;4379;59.744;18.206;2023-01-28T05:59:37;1.07;;;0.77;;
8683;SDS011;4379;59.744;18.206;2023-01-28T06:02:05;0.80;;;0.80;;
8683;SDS011;4379;59.744;18.206;2023-01-28T06:04:32;2.17;;;1.17;;
8683;SDS011;4379;59.744;18.206;2023-01-28T06:06:59;1.57;;;0.80;;
8683;SDS011;4379;59.744;18.206;2023-01-28T06:09:26;1.23;;;0.77;;
8683;SDS011;4379;59.744;18.206;2023-01-28T06:11:54;1.90;;;0.80;;
8683;SDS011;4379;59.744;18.206;2023-01-28T06:14:21;1.53;;;0.90;;
8683;SDS011;4379;59.744;18.206;2023-01-28T06:16:48;0.80;;;0.80;;
8683;SDS011;4379;59.744;18.206;2023-01-28T06:19:17;1.40;;;0.90;;
8683;SDS011;4379;59.744;18.206;2023-01-28T06:21:44;1.70;;;0.90;;
8683;SDS011;4379;59.744;18.206;2023-01-28T06:24:12;2.60;;;0.90;;
8683;SDS011;4379;59.744;18.206;2023-01-28T06:26:39;0.97;;;0.77;;
8683;SDS011;4379;59.744;18.206;2023-01-28T06:29:07;1.53;;;0.80;;
8683;SDS011;4379;59.744;18.206;2023-01-28T06:31:34;1.93;;;0.90;;
8683;SDS011;4379;59.744;18.206;2023-01-28T06:34:01;1.80;;;0.77;;
8683;SDS011;4379;59.744;18.206;2023-01-28T06:36:29;2.30;;;0.90;;
8683;SDS011;4379;59.744;18.206;2023-01-28T06:38:56;1.83;;;1.00;;
8683;SDS011;4379;59.744;18.206;2023-01-28T06:41:24;1.23;;;0.93;;
8683;SDS011;4379;59.744;18.206;2023-01-28T06:43:51;1.40;;;0.90;;
8683;SDS011;4379;59.744;18.206;2023-01-28T06:46:18;1.23;;;0.90;;
8683;SDS011;4379;59.744;18.206;2023-01-28T06:48:45;2.03;;;1.00;;
8683;SDS011;4379;59.744;18.206;2023-01-28T06:51:13;0.97;;;0.97;;
8683;SDS011;4379;59.744;18.206;2023-01-28T06:53:40;1.07;;;0.93;;
8683;SDS011;4379;59.744;18.206;2023-01-28T06:56:07;0.90;;;0.90;;
8683;SDS011;4379;59.744;18.206;2023-01-28T06:58:34;4.53;;;1.20;;
8683;SDS011;4379;59.744;18.206;2023-01-28T07:01:02;1.00;;;0.90;;
8683;SDS011;4379;59.744;18.206;2023-01-28T07:03:29;1.77;;;0.90;;
8683;SDS011;4379;59.744;18.206;2023-01-28T07:05:56;1.43;;;0.90;;
8683;SDS011;4379;59.744;18.206;2023-01-28T07:08:23;2.67;;;0.97;;
8683;SDS011;4379;59.744;18.206;2023-01-28T07:10:51;1.73;;;1.07;;
8683;SDS011;4379;59.744;18.206;2023-01-28T07:13:19;2.43;;;1.20;;
8683;SDS011;4379;59.744;18.206;2023-01-28T07:15:47;2.70;;;1.10;;
8683;SDS011;4379;59.744;18.206;2023-01-28T07:18:15;2.13;;;0.87;;
8683;SDS011;4379;59.744;18.206;2023-01-28T07:20:43;2.80;;;1.20;;
8683;SDS011;4379;59.744;18.206;2023-01-28T07:23:11;2.53;;;1.00;;
8683;SDS011;4379;59.744;18.206;2023-01-28T07:25:38;1.37;;;0.90;;
8683;SDS011;4379;59.744;18.206;2023-01-28T07:28:05;2.03;;;0.97;;
8683;SDS011;4379;59.744;18.206;2023-01-28T07:30:33;1.90;;;0.90;;
8683;SDS011;4379;59.744;18.206;2023-01-28T07:33:00;4.37;;;1.20;;
8683;SDS011;4379;59.744;18.206;2023-01-28T07:35:27;3.03;;;1.17;;
8683;SDS011;4379;59.744;18.206;2023-01-28T07:37:56;4.07;;;1.37;;
8683;SDS011;4379;59.744;18.206;2023-01-28T07:40:25;1.77;;;1.10;;
8683;SDS011;4379;59.744;18.206;2023-01-28T07:42:53;3.13;;;1.30;;
8683;SDS011;4379;59.744;18.206;2023-01-28T07:45:23;1.53;;;1.23;;
8683;SDS011;4379;59.744;18.206;2023-01-28T07:47:58;2.83;;;1.10;;
8683;SDS011;4379;59.744;18.206;2023-01-28T07:50:28;2.97;;;1.60;;
8683;SDS011;4379;59.744;18.206;2023-01-28T07:52:56;3.27;;;1.33;;
8683;SDS011;4379;59.744;18.206;2023-01-28T07:55:24;2.07;;;1.50;;
8683;SDS011;4379;59.744;18.206;2023-01-28T07:57:58;4.47;;;1.50;;
8683;SDS011;4379;59.744;18.206;2023-01-28T08:00:28;3.60;;;1.33;;
8683;SDS011;4379;59.744;18.206;2023-01-28T08:02:57;3.20;;;1.23;;
8683;SDS011;4379;59.744;18.206;2023-01-28T08:05:27;4.20;;;1.50;;
8683;SDS011;4379;59.744;18.206;2023-01-28T08:08:09;3.60;;;1.30;;
8683;SDS011;4379;59.744;18.206;2023-01-28T08:10:37;4.97;;;1.60;;
8683;SDS011;4379;59.744;18.206;2023-01-28T08:13:04;2.23;;;1.53;;
8683;SDS011;4379;59.744;18.206;2023-01-28T08:15:32;1.00;;;1.00;;
8683;SDS011;4379;59.744;18.206;2023-01-28T08:18:01;3.50;;;1.70;;
8683;SDS011;4379;59.744;18.206;2023-01-28T08:20:29;4.10;;;1.37;;
8683;SDS011;4379;59.744;18.206;2023-01-28T08:25:56;3.27;;;1.30;;
8683;SDS011;4379;59.744;18.206;2023-01-28T08:28:24;3.97;;;1.70;;
8683;SDS011;4379;59.744;18.206;2023-01-28T08:30:52;2.63;;;1.83;;
8683;SDS011;4379;59.744;18.206;2023-01-28T08:33:19;3.30;;;1.33;;
8683;SDS011;4379;59.744;18.206;2023-01-28T08:35:47;2.47;;;1.27;;
8683;SDS011;4379;59.744;18.206;2023-01-28T08:38:14;1.97;;;1.10;;
8683;SDS011;4379;59.744;18.206;2023-01-28T08:40:43;1.80;;;1.00;;
8683;SDS011;4379;59.744;18.206;2023-01-28T08:43:10;2.23;;;1.40;;
8683;SDS011;4379;59.744;18.206;2023-01-28T08:45:38;4.57;;;1.47;;
8683;SDS011;4379;59.744;18.206;2023-01-28T08:48:06;1.83;;;1.10;;
8683;SDS011;4379;59.744;18.206;2023-01-28T08:50:37;3.60;;;1.50;;
8683;SDS011;4379;59.744;18.206;2023-01-28T08:53:08;3.87;;;1.47;;
8683;SDS011;4379;59.744;18.206;2023-01-28T08:55:37;3.03;;;1.33;;
8683;SDS011;4379;59.744;18.206;2023-01-28T08:58:05;2.03;;;1.57;;
8683;SDS011;4379;59.744;18.206;2023-01-28T09:00:35;2.30;;;1.30;;
8683;SDS011;4379;59.744;18.206;2023-01-28T09:03:03;4.13;;;1.73;;
8683;SDS011;4379;59.744;18.206;2023-01-28T09:05:35;5.43;;;1.30;;
8683;SDS011;4379;59.744;18.206;2023-01-28T09:08:04;4.20;;;1.40;;
8683;SDS011;4379;59.744;18.206;2023-01-28T09:10:33;2.50;;;1.60;;
8683;SDS011;4379;59.744;18.206;2023-01-28T09:13:03;1.87;;;1.77;;
8683;SDS011;4379;59.744;18.206;2023-01-28T09:15:38;6.93;;;1.70;;
8683;SDS011;4379;59.744;18.206;2023-01-28T09:18:06;3.70;;;1.30;;
8683;SDS011;4379;59.744;18.206;2023-01-28T09:20:33;2.30;;;1.30;;
8683;SDS011;4379;59.744;18.206;2023-01-28T09:23:01;4.43;;;1.60;;
8683;SDS011;4379;59.744;18.206;2023-01-28T09:25:28;1.53;;;1.43;;
8683;SDS011;4379;59.744;18.206;2023-01-28T09:27:56;2.10;;;1.30;;
8683;SDS011;4379;59.744;18.206;2023-01-28T09:30:24;3.50;;;1.37;;
8683;SDS011;4379;59.744;18.206;2023-01-28T09:32:52;2.23;;;1.60;;
8683;SDS011;4379;59.744;18.206;2023-01-28T09:35:21;4.43;;;1.50;;
8683;SDS011;4379;59.744;18.206;2023-01-28T09:37:48;5.07;;;2.10;;
8683;SDS011;4379;59.744;18.206;2023-01-28T09:40:18;4.00;;;1.50;;
8683;SDS011;4379;59.744;18.206;2023-01-28T09:42:53;3.40;;;1.87;;
8683;SDS011;4379;59.744;18.206;2023-01-28T09:45:45;5.10;;;1.47;;
8683;SDS011;4379;59.744;18.206;2023-01-28T09:48:18;3.20;;;1.30;;
8683;SDS011;4379;59.744;18.206;2023-01-28T09:50:50;3.37;;;1.50;;
8683;SDS011;4379;59.744;18.206;2023-01-28T09:53:21;2.30;;;1.53;;
8683;SDS011;4379;59.744;18.206;2023-01-28T09:55:55;2.47;;;1.33;;
8683;SDS011;4379;59.744;18.206;2023-01-28T09:58:22;2.77;;;1.47;;
8683;SDS011;4379;59.744;18.206;2023-01-28T10:00:58;3.27;;;1.70;;
8683;SDS011;4379;59.744;18.206;2023-01-28T10:18:33;2.83;;;1.40;;
8683;SDS011;4379;59.744;18.206;2023-01-28T10:21:10;2.67;;;1.10;;
8683;SDS011;4379;59.744;18.206;2023-01-28T10:23:45;2.33;;;1.20;;
8683;SDS011;4379;59.744;18.206;2023-01-28T10:26:30;3.80;;;1.43;;
8683;SDS011;4379;59.744;18.206;2023-01-28T10:29:12;4.23;;;1.60;;
8683;SDS011;4379;59.744;18.206;2023-01-28T10:32:11;1.83;;;1.20;;
8683;SDS011;4379;59.744;18.206;2023-01-28T10:34:50;3.23;;;1.80;;
8683;SDS011;4379;59.744;18.206;2023-01-28T10:37:18;3.17;;;1.30;;
8683;SDS011;4379;59.744;18.206;2023-01-28T10:39:47;3.17;;;1.33;;
8683;SDS011;4379;59.744;18.206;2023-01-28T10:42:37;2.17;;;1.27;;
8683;SDS011;4379;59.744;18.206;2023-01-28T10:50:32;4.23;;;1.50;;
8683;SDS011;4379;59.744;18.206;2023-01-28T10:53:04;4.17;;;1.40;;
8683;SDS011;4379;59.744;18.206;2023-01-28T10:55:44;4.17;;;1.63;;
8683;SDS011;4379;59.744;18.206;2023-01-28T10:58:17;4.37;;;1.60;;
8683;SDS011;4379;59.744;18.206;2023-01-28T11:00:57;3.57;;;1.60;;
8683;SDS011;4379;59.744;18.206;2023-01-28T11:03:26;4.10;;;1.60;;
8683;SDS011;4379;59.744;18.206;2023-01-28T11:05:57;3.23;;;1.67;;
8683;SDS011;4379;59.744;18.206;2023-01-28T11:08:26;3.27;;;1.77;;
8683;SDS011;4379;59.744;18.206;2023-01-28T11:10:55;3.77;;;2.07;;
8683;SDS011;4379;59.744;18.206;2023-01-28T11:13:24;3.10;;;2.30;;
8683;SDS011;4379;59.744;18.206;2023-01-28T11:16:04;5.43;;;2.53;;
8683;SDS011;4379;59.744;18.206;2023-01-28T11:18:51;3.23;;;2.20;;
8683;SDS011;4379;59.744;18.206;2023-01-28T11:21:24;7.17;;;2.53;;
8683;SDS011;4379;59.744;18.206;2023-01-28T11:23:56;6.07;;;3.03;;
8683;SDS011;4379;59.744;18.206;2023-01-28T11:26:30;5.23;;;2.83;;
8683;SDS011;4379;59.744;18.206;2023-01-28T11:29:03;5.47;;;2.50;;
8683;SDS011;4379;59.744;18.206;2023-01-28T11:31:36;4.93;;;2.90;;
8683;SDS011;4379;59.744;18.206;2023-01-28T11:34:10;3.37;;;2.73;;
8683;SDS011;4379;59.744;18.206;2023-01-28T11:39:31;3.13;;;2.60;;
8683;SDS011;4379;59.744;18.206;2023-01-28T11:42:02;4.80;;;2.70;;
8683;SDS011;4379;59.744;18.206;2023-01-28T11:44:38;5.03;;;2.93;;
8683;SDS011;4379;59.744;18.206;2023-01-28T12:15:04;1.37;;;1.00;;
8683;SDS011;4379;59.744;18.206;2023-01-28T12:40:44;3.33;;;1.10;;
8683;SDS011;4379;59.744;18.206;2023-01-28T12:46:22;1.40;;;1.27;;
8683;SDS011;4379;59.744;18.206;2023-01-28T12:49:20;2.83;;;1.10;;
8683;SDS011;4379;59.744;18.206;2023-01-28T12:55:02;4.17;;;1.50;;
8683;SDS011;4379;59.744;18.206;2023-01-28T12:57:32;1.83;;;1.40;;
8683;SDS011;4379;59.744;18.206;2023-01-28T13:03:10;3.10;;;1.50;;
8683;SDS011;4379;59.744;18.206;2023-01-28T13:05:49;4.17;;;1.63;;
8683;SDS011;4379;59.744;18.206;2023-01-28T13:08:24;3.93;;;1.10;;
8683;SDS011;4379;59.744;18.206;2023-01-28T13:10:54;1.00;;;0.80;;
8683;SDS011;4379;59.744;18.206;2023-01-28T13:13:27;2.63;;;1.40;;
8683;SDS011;4379;59.744;18.206;2023-01-28T13:16:03;1.70;;;1.17;;
8683;SDS011;4379;59.744;18.206;2023-01-28T13:18:41;2.23;;;1.10;;
8683;SDS011;4379;59.744;18.206;2023-01-28T13:21:14;2.33;;;1.10;;
8683;SDS011;4379;59.744;18.206;2023-01-28T13:31:41;2.47;;;1.27;;
8683;SDS011;4379;59.744;18.206;2023-01-28T13:37:27;1.43;;;1.00;;
8683;SDS011;4379;59.744;18.206;2023-01-28T13:39:49;3.57;;;1.40;;
8683;SDS011;4379;59.744;18.206;2023-01-28T13:42:21;3.30;;;1.40;;
8683;SDS011;4379;59.744;18.206;2023-01-28T13:44:53;1.40;;;1.23;;
8683;SDS011;4379;59.744;18.206;2023-01-28T13:47:26;1.53;;;1.20;;
8683;SDS011;4379;59.744;18.206;2023-01-28T13:50:02;2.03;;;1.70;;
8683;SDS011;4379;59.744;18.206;2023-01-28T13:52:35;1.87;;;1.33;;
8683;SDS011;4379;59.744;18.206;2023-01-28T13:57:42;1.93;;;1.40;;
8683;SDS011;4379;59.744;18.206;2023-01-28T14:15:02;3.50;;;1.53;;
8683;SDS011;4379;59.744;18.206;2023-01-28T14:20:13;2.10;;;1.00;;
8683;SDS011;4379;59.744;18.206;2023-01-28T14:22:48;1.67;;;1.30;;
8683;SDS011;4379;59.744;18.206;2023-01-28T14:25:21;2.70;;;1.40;;
8683;SDS011;4379;59.744;18.206;2023-01-28T14:27:54;1.63;;;0.93;;
8683;SDS011;4379;59.744;18.206;2023-01-28T14:30:38;1.73;;;1.20;;
8683;SDS011;4379;59.744;18.206;2023-01-28T14:33:28;2.20;;;1.37;;
8683;SDS011;4379;59.744;18.206;2023-01-28T14:35:59;3.20;;;1.60;;
8683;SDS011;4379;59.744;18.206;2023-01-28T14:38:28;2.10;;;1.23;;
8683;SDS011;4379;59.744;18.206;2023-01-28T14:41:03;1.60;;;1.30;;
8683;SDS011;4379;59.744;18.206;2023-01-28T14:43:31;2.53;;;1.20;;
8683;SDS011;4379;59.744;18.206;2023-01-28T14:58:15;2.43;;;1.40;;
8683;SDS011;4379;59.744;18.206;2023-01-28T15:00:40;2.60;;;1.47;;
8683;SDS011;4379;59.744;18.206;2023-01-28T15:03:22;3.23;;;1.30;;
8683;SDS011;4379;59.744;18.206;2023-01-28T15:06:00;1.60;;;1.30;;
8683;SDS011;4379;59.744;18.206;2023-01-28T15:08:32;2.53;;;1.43;;
8683;SDS011;4379;59.744;18.206;2023-01-28T15:11:01;1.53;;;1.40;;
8683;SDS011;4379;59.744;18.206;2023-01-28T15:13:33;2.53;;;1.50;;
8683;SDS011;4379;59.744;18.206;2023-01-28T15:16:04;1.90;;;1.50;;
8683;SDS011;4379;59.744;18.206;2023-01-28T15:18:42;2.20;;;1.57;;
8683;SDS011;4379;59.744;18.206;2023-01-28T15:21:09;1.50;;;1.40;;
8683;SDS011;4379;59.744;18.206;2023-01-28T15:23:39;1.90;;;1.50;;
8683;SDS011;4379;59.744;18.206;2023-01-28T15:26:10;3.13;;;1.63;;
8683;SDS011;4379;59.744;18.206;2023-01-28T15:28:45;1.73;;;1.43;;
8683;SDS011;4379;59.744;18.206;2023-01-28T15:31:20;3.07;;;1.70;;
8683;SDS011;4379;59.744;18.206;2023-01-28T15:33:58;2.37;;;1.53;;
8683;SDS011;4379;59.744;18.206;2023-01-28T15:36:39;1.57;;;1.17;;
8683;SDS011;4379;59.744;18.206;2023-01-28T15:39:16;1.80;;;1.63;;
8683;SDS011;4379;59.744;18.206;2023-01-28T15:41:49;2.80;;;1.60;;
8683;SDS011;4379;59.744;18.206;2023-01-28T15:44:32;2.97;;;1.50;;
8683;SDS011;4379;59.744;18.206;2023-01-28T15:47:12;1.70;;;1.37;;
8683;SDS011;4379;59.744;18.206;2023-01-28T15:49:42;4.00;;;1.60;;
8683;SDS011;4379;59.744;18.206;2023-01-28T15:52:12;1.73;;;1.43;;
8683;SDS011;4379;59.744;18.206;2023-01-28T15:54:41;4.23;;;1.53;;
8683;SDS011;4379;59.744;18.206;2023-01-28T15:57:20;1.90;;;1.70;;
8683;SDS011;4379;59.744;18.206;2023-01-28T16:02:32;9.90;;;5.63;;
8683;SDS011;4379;59.744;18.206;2023-01-28T16:05:22;2.50;;;1.67;;
8683;SDS011;4379;59.744;18.206;2023-01-28T16:07:50;3.00;;;1.80;;
8683;SDS011;4379;59.744;18.206;2023-01-28T16:10:18;2.27;;;2.13;;
8683;SDS011;4379;59.744;18.206;2023-01-28T16:12:50;5.63;;;2.40;;
8683;SDS011;4379;59.744;18.206;2023-01-28T16:15:26;3.93;;;2.40;;
8683;SDS011;4379;59.744;18.206;2023-01-28T16:17:53;2.50;;;2.30;;
8683;SDS011;4379;59.744;18.206;2023-01-28T16:20:22;3.00;;;2.70;;
8683;SDS011;4379;59.744;18.206;2023-01-28T16:22:53;4.70;;;2.40;;
8683;SDS011;4379;59.744;18.206;2023-01-28T16:27:49;3.17;;;2.40;;
8683;SDS011;4379;59.744;18.206;2023-01-28T16:30:17;3.20;;;2.20;;
8683;SDS011;4379;59.744;18.206;2023-01-28T16:32:44;3.00;;;2.30;;
8683;SDS011;4379;59.744;18.206;2023-01-28T16:35:12;5.70;;;2.10;;
8683;SDS011;4379;59.744;18.206;2023-01-28T16:37:43;2.53;;;2.33;;
8683;SDS011;4379;59.744;18.206;2023-01-28T16:40:14;4.93;;;2.17;;
8683;SDS011;4379;59.744;18.206;2023-01-28T16:42:44;3.50;;;2.20;;
8683;SDS011;4379;59.744;18.206;2023-01-28T16:45:17;3.73;;;2.20;;
8683;SDS011;4379;59.744;18.206;2023-01-28T16:47:46;2.23;;;2.10;;
8683;SDS011;4379;59.744;18.206;2023-01-28T16:50:14;4.63;;;2.10;;
8683;SDS011;4379;59.744;18.206;2023-01-28T16:52:44;2.67;;;2.10;;
8683;SDS011;4379;59.744;18.206;2023-01-28T16:55:14;4.00;;;2.37;;
8683;SDS011;4379;59.744;18.206;2023-01-28T16:57:46;2.37;;;2.17;;
8683;SDS011;4379;59.744;18.206;2023-01-28T17:00:22;4.90;;;2.30;;
8683;SDS011;4379;59.744;18.206;2023-01-28T17:02:57;4.40;;;2.30;;
8683;SDS011;4379;59.744;18.206;2023-01-28T17:05:26;6.20;;;3.10;;
8683;SDS011;4379;59.744;18.206;2023-01-28T17:07:55;3.47;;;2.60;;
8683;SDS011;4379;59.744;18.206;2023-01-28T17:10:26;2.40;;;2.20;;
8683;SDS011;4379;59.744;18.206;2023-01-28T17:12:55;4.90;;;2.37;;
8683;SDS011;4379;59.744;18.206;2023-01-28T17:15:24;4.60;;;2.90;;
8683;SDS011;4379;59.744;18.206;2023-01-28T17:17:52;5.87;;;2.50;;
8683;SDS011;4379;59.744;18.206;2023-01-28T17:20:19;3.90;;;2.27;;
8683;SDS011;4379;59.744;18.206;2023-01-28T17:22:47;2.43;;;2.23;;
8683;SDS011;4379;59.744;18.206;2023-01-28T17:25:15;2.77;;;2.37;;
8683;SDS011;4379;59.744;18.206;2023-01-28T17:27:42;3.17;;;2.00;;
8683;SDS011;4379;59.744;18.206;2023-01-28T17:30:10;3.47;;;2.07;;
8683;SDS011;4379;59.744;18.206;2023-01-28T17:32:38;2.93;;;2.37;;
8683;SDS011;4379;59.744;18.206;2023-01-28T17:35:05;3.90;;;2.30;;
8683;SDS011;4379;59.744;18.206;2023-01-28T17:37:33;2.10;;;1.90;;
8683;SDS011;4379;59.744;18.206;2023-01-28T17:40:00;5.23;;;2.20;;
8683;SDS011;4379;59.744;18.206;2023-01-28T17:42:28;4.67;;;2.17;;
8683;SDS011;4379;59.744;18.206;2023-01-28T17:44:56;3.33;;;1.80;;
8683;SDS011;4379;59.744;18.206;2023-01-28T17:47:28;2.27;;;1.73;;
8683;SDS011;4379;59.744;18.206;2023-01-28T17:49:56;2.93;;;2.20;;
8683;SDS011;4379;59.744;18.206;2023-01-28T17:52:24;3.53;;;2.00;;
8683;SDS011;4379;59.744;18.206;2023-01-28T17:54:51;4.00;;;2.20;;
8683;SDS011;4379;59.744;18.206;2023-01-28T17:57:19;4.33;;;2.10;;
8683;SDS011;4379;59.744;18.206;2023-01-28T17:59:47;3.03;;;2.40;;
8683;SDS011;4379;59.744;18.206;2023-01-28T18:02:14;4.83;;;2.20;;
8683;SDS011;4379;59.744;18.206;2023-01-28T18:04:42;2.37;;;2.17;;
8683;SDS011;4379;59.744;18.206;2023-01-28T18:07:09;2.47;;;2.27;;